< < Back
Terminal Aerodrome Forecast


Current Version              Previous Versions:   1  2  3  4  5  6  7  8  9  

Terminal Aerodrome Forecast

113
FTUS42 KFFC 272100 AAA
TAFCSG
TAF AMD
KCSG 272157Z 2722/2818 26009KT P6SM SCT050
     FM280100 25006KT P6SM FEW120
     FM281400 29007G15KT P6SM SCT040
     FM281700 28010G17KT P6SM VCSH BKN050=

Latest METAR

956
SAUS70 KWBC 280800 RRA
MTRCSG
METAR KCSG 280751Z AUTO 25004KT 10SM CLR 26/23 A2995 RMK AO2 SLP135
T02610228


USA.gov is the U.S. government's official web portal to all federal, state and local government web resources and services.